createdAt,value
2018-10-01T00:01:17.523Z,11.52
2018-10-01T00:03:45.873Z,11.51
2018-10-01T00:06:14.461Z,12.00
2018-10-01T00:08:43.221Z,11.98
2018-10-01T00:11:11.603Z,11.98
2018-10-01T00:13:39.944Z,11.99
2018-10-01T00:16:08.456Z,11.87
2018-10-01T00:18:37.091Z,12.08
2018-10-01T00:21:10.980Z,12.22
2018-10-01T00:23:39.389Z,12.22
2018-10-01T00:26:07.822Z,12.25
2018-10-01T00:28:36.164Z,11.87
2018-10-01T00:31:05.046Z,12.36
2018-10-01T00:33:33.386Z,12.75
2018-10-01T00:36:01.813Z,12.42
2018-10-01T00:38:30.206Z,12.75
2018-10-01T00:40:58.503Z,12.89
2018-10-01T00:43:26.877Z,12.89
2018-10-01T00:45:55.257Z,12.87
2018-10-01T00:48:23.620Z,12.53
2018-10-01T00:50:51.984Z,12.68
2018-10-01T00:53:20.320Z,12.93
2018-10-01T00:55:48.636Z,12.93
2018-10-01T00:58:17.043Z,13.09
2018-10-01T01:00:45.404Z,13.53
2018-10-01T01:03:13.797Z,12.82
2018-10-01T01:05:42.156Z,12.99
2018-10-01T01:08:10.627Z,13.08
2018-10-01T01:10:39.014Z,13.61
2018-10-01T01:13:07.395Z,13.20
2018-10-01T01:15:35.716Z,13.48
2018-10-01T01:18:04.065Z,13.35
2018-10-01T01:20:32.415Z,13.49
2018-10-01T01:23:00.815Z,13.18
2018-10-01T01:25:29.227Z,13.59
2018-10-01T01:27:57.539Z,13.23
2018-10-01T01:30:25.848Z,13.51
2018-10-01T01:32:54.160Z,12.78
2018-10-01T01:35:22.477Z,12.88
2018-10-01T01:37:50.781Z,13.40
2018-10-01T01:40:19.144Z,13.28
2018-10-01T01:42:47.513Z,13.33
2018-10-01T01:45:15.917Z,13.95
2018-10-01T01:47:44.249Z,13.57
2018-10-01T01:50:12.576Z,13.96
2018-10-01T01:52:40.886Z,13.86
2018-10-01T01:55:09.271Z,13.73
2018-10-01T01:57:37.587Z,13.70
2018-10-01T02:00:06.347Z,13.78
2018-10-01T02:02:34.640Z,13.09
2018-10-01T02:05:02.948Z,13.48
2018-10-01T02:07:31.274Z,12.41
2018-10-01T02:09:59.688Z,12.93
2018-10-01T02:12:28.030Z,12.99
2018-10-01T02:14:56.352Z,12.65
2018-10-01T02:17:24.808Z,12.68
2018-10-01T02:19:53.285Z,12.67
2018-10-01T02:22:21.583Z,13.37
2018-10-01T02:24:49.917Z,12.85
2018-10-01T02:27:18.421Z,13.13
2018-10-01T02:29:46.796Z,13.16
2018-10-01T02:32:15.328Z,13.36
2018-10-01T02:34:43.688Z,13.53
2018-10-01T02:37:12.152Z,13.36
2018-10-01T02:39:40.499Z,13.51
2018-10-01T02:42:08.912Z,13.64
2018-10-01T02:44:37.263Z,13.31
2018-10-01T02:47:05.964Z,13.48
2018-10-01T02:49:34.313Z,13.26
2018-10-01T02:52:07.985Z,12.56
2018-10-01T02:54:36.337Z,13.15
2018-10-01T02:57:04.744Z,12.26
2018-10-01T02:59:33.111Z,12.86
2018-10-01T03:02:01.486Z,12.96
2018-10-01T03:04:29.940Z,12.87
2018-10-01T03:06:58.293Z,12.90
2018-10-01T03:09:26.663Z,12.76
2018-10-01T03:11:55.023Z,13.24
2018-10-01T03:14:23.344Z,13.45
2018-10-01T03:16:51.677Z,13.00
2018-10-01T03:19:20.128Z,13.14
2018-10-01T03:21:48.476Z,13.47
2018-10-01T03:24:16.836Z,13.38
2018-10-01T03:26:45.198Z,13.30
2018-10-01T03:29:13.543Z,13.12
2018-10-01T03:31:41.906Z,12.83
2018-10-01T03:34:10.279Z,13.09
2018-10-01T03:36:38.652Z,13.00
2018-10-01T03:39:08.540Z,13.54
2018-10-01T03:41:37.016Z,12.82
2018-10-01T03:44:05.328Z,12.93
2018-10-01T03:46:33.673Z,13.46
2018-10-01T03:49:01.972Z,12.18
2018-10-01T03:51:30.284Z,12.42
2018-10-01T03:53:58.637Z,12.57
2018-10-01T03:56:27.008Z,13.35
2018-10-01T03:58:55.372Z,13.38
2018-10-01T04:01:23.745Z,12.91
2018-10-01T04:03:52.120Z,13.01
2018-10-01T04:06:20.680Z,12.17
2018-10-01T04:08:49.029Z,12.82
2018-10-01T04:11:17.500Z,12.49
2018-10-01T04:13:45.988Z,12.96
2018-10-01T04:16:14.381Z,12.47
2018-10-01T04:18:42.716Z,12.69
2018-10-01T04:21:11.024Z,12.12
2018-10-01T04:23:39.344Z,12.18
2018-10-01T04:26:07.882Z,12.76
2018-10-01T04:28:36.364Z,11.85
2018-10-01T04:31:04.737Z,12.40
2018-10-01T04:33:33.143Z,12.92
2018-10-01T04:36:01.448Z,12.60
2018-10-01T04:38:29.783Z,12.57
2018-10-01T04:40:58.120Z,12.76
2018-10-01T04:43:26.424Z,12.80
2018-10-01T04:45:54.776Z,12.27
2018-10-01T04:48:23.140Z,12.18
2018-10-01T04:50:51.590Z,11.96
2018-10-01T04:53:20.257Z,12.06
2018-10-01T04:55:48.872Z,11.70
2018-10-01T04:58:17.398Z,12.07
2018-10-01T05:00:45.944Z,12.41
2018-10-01T05:03:14.382Z,12.40
2018-10-01T05:05:42.840Z,12.39
2018-10-01T05:08:11.246Z,11.71
2018-10-01T05:10:39.693Z,11.70
2018-10-01T05:13:08.058Z,11.62
2018-10-01T05:15:37.701Z,12.01
2018-10-01T05:18:06.306Z,12.07
2018-10-01T05:20:34.782Z,12.04
2018-10-01T05:23:03.203Z,11.90
2018-10-01T05:25:31.630Z,11.53
2018-10-01T05:28:00.174Z,11.65
2018-10-01T05:30:28.656Z,11.33
2018-10-01T05:32:57.145Z,11.90
2018-10-01T05:35:25.627Z,11.78
2018-10-01T05:37:54.893Z,11.80
2018-10-01T05:40:23.355Z,11.57
2018-10-01T05:42:51.904Z,12.03
2018-10-01T05:45:20.341Z,12.39
2018-10-01T05:47:49.060Z,12.65
2018-10-01T05:50:17.477Z,11.90
2018-10-01T05:52:46.059Z,12.47
2018-10-01T05:55:15.278Z,11.70
2018-10-01T05:57:43.737Z,11.83
2018-10-01T06:00:12.111Z,11.83
2018-10-01T06:02:40.497Z,11.76
2018-10-01T06:05:09.246Z,11.21
2018-10-01T06:07:37.709Z,12.12
2018-10-01T06:10:06.205Z,11.34
2018-10-01T06:12:35.033Z,11.44
2018-10-01T06:15:03.450Z,11.86
2018-10-01T06:17:31.808Z,12.43
2018-10-01T06:20:00.161Z,11.69
2018-10-01T06:22:28.533Z,11.51
2018-10-01T06:24:56.890Z,11.70
2018-10-01T06:27:25.233Z,11.93
2018-10-01T06:29:53.620Z,12.01
2018-10-01T06:32:21.948Z,11.85
2018-10-01T06:34:50.280Z,11.87
2018-10-01T06:37:18.711Z,12.33
2018-10-01T06:39:47.081Z,12.45
2018-10-01T06:42:15.566Z,12.71
2018-10-01T06:44:43.904Z,12.52
2018-10-01T06:47:12.292Z,12.61
2018-10-01T06:49:40.708Z,12.23
2018-10-01T06:52:09.054Z,12.51
2018-10-01T06:54:37.616Z,11.88
2018-10-01T06:57:06.024Z,11.82
2018-10-01T06:59:34.449Z,12.16
2018-10-01T07:02:02.908Z,11.55
2018-10-01T07:04:31.228Z,11.60
2018-10-01T07:06:59.580Z,11.99
2018-10-01T07:09:27.944Z,12.48
2018-10-01T07:11:56.336Z,12.14
2018-10-01T07:14:24.725Z,12.38
2018-10-01T07:16:53.204Z,11.56
2018-10-01T07:19:21.420Z,12.36
2018-10-01T07:21:49.770Z,12.00
2018-10-01T07:24:18.115Z,12.26
2018-10-01T07:26:46.443Z,11.74
2018-10-01T07:29:14.792Z,12.81
2018-10-01T07:31:43.135Z,12.35
2018-10-01T07:34:11.542Z,12.91
2018-10-01T07:36:39.904Z,12.81
2018-10-01T07:39:08.596Z,11.77
2018-10-01T07:41:36.975Z,12.75
2018-10-01T07:44:05.332Z,12.24
2018-10-01T07:46:33.676Z,12.66
2018-10-01T07:49:02.054Z,13.10
2018-10-01T07:51:30.475Z,12.61
2018-10-01T07:53:58.814Z,12.99
2018-10-01T07:56:27.441Z,13.08
2018-10-01T07:58:55.921Z,12.34
2018-10-01T08:01:24.297Z,13.01
2018-10-01T08:03:52.645Z,13.84
2018-10-01T08:06:21.027Z,14.20
2018-10-01T08:08:50.114Z,13.37
2018-10-01T08:11:18.521Z,12.98
2018-10-01T08:13:46.957Z,12.44
2018-10-01T08:16:15.407Z,13.10
2018-10-01T08:18:44.235Z,12.64
2018-10-01T08:21:13.336Z,13.05
2018-10-01T08:23:42.220Z,13.66
2018-10-01T08:26:10.721Z,13.66
2018-10-01T08:28:39.590Z,13.69
2018-10-01T08:31:08.414Z,13.66
2018-10-01T08:33:37.278Z,13.40
2018-10-01T08:36:06.216Z,14.49
2018-10-01T08:38:35.543Z,14.10
2018-10-01T08:41:04.034Z,12.98
2018-10-01T08:43:32.416Z,13.23
2018-10-01T08:46:01.087Z,13.27
2018-10-01T08:48:30.898Z,13.02
2018-10-01T08:51:08.280Z,13.48
2018-10-01T08:53:42.243Z,13.51
2018-10-01T08:56:10.832Z,12.96
2018-10-01T08:58:39.369Z,12.84
2018-10-01T09:01:07.905Z,13.81
2018-10-01T09:03:36.432Z,13.95
2018-10-01T09:06:04.996Z,13.61
2018-10-01T09:08:33.469Z,13.45
2018-10-01T09:11:01.983Z,14.36
2018-10-01T09:13:30.410Z,15.15
2018-10-01T09:15:58.884Z,16.48
2018-10-01T09:18:27.317Z,15.41
2018-10-01T09:20:55.845Z,14.65
2018-10-01T09:23:24.353Z,15.45
2018-10-01T09:25:52.802Z,14.40
2018-10-01T09:28:21.259Z,15.14
2018-10-01T09:30:49.811Z,14.40
2018-10-01T09:33:18.212Z,14.96
2018-10-01T09:35:46.657Z,14.54
2018-10-01T09:38:15.152Z,16.80
2018-10-01T09:40:43.552Z,18.47
2018-10-01T09:43:12.004Z,18.82
2018-10-01T09:45:40.485Z,17.43
2018-10-01T09:48:08.931Z,16.99
2018-10-01T09:50:37.323Z,16.39
2018-10-01T09:53:05.764Z,15.22
2018-10-01T09:55:34.251Z,15.12
2018-10-01T09:58:02.893Z,14.61
2018-10-01T10:00:35.892Z,14.59
2018-10-01T10:03:04.768Z,12.77
2018-10-01T10:05:33.303Z,13.25
2018-10-01T10:08:01.868Z,13.43
2018-10-01T10:10:30.396Z,13.48
2018-10-01T10:12:58.829Z,14.93
2018-10-01T10:15:27.478Z,15.71
2018-10-01T10:17:56.015Z,17.68
2018-10-01T10:20:24.612Z,18.62
2018-10-01T10:22:53.115Z,17.59
2018-10-01T10:25:21.595Z,16.33
2018-10-01T10:27:50.041Z,15.53
2018-10-01T10:30:18.532Z,15.33
2018-10-01T10:32:46.984Z,17.64
2018-10-01T10:35:15.593Z,18.27
2018-10-01T10:37:44.111Z,21.11
2018-10-01T10:40:12.660Z,20.76
2018-10-01T10:42:41.120Z,18.20
2018-10-01T10:45:09.594Z,16.18
2018-10-01T10:47:38.009Z,16.29
2018-10-01T10:50:06.546Z,17.05
2018-10-01T10:52:34.951Z,16.56
2018-10-01T10:55:03.400Z,17.56
2018-10-01T10:57:31.856Z,17.32
2018-10-01T11:00:00.344Z,17.05
2018-10-01T11:02:29.183Z,16.53
2018-10-01T11:04:57.548Z,16.18
2018-10-01T11:07:26.016Z,16.00
2018-10-01T11:09:54.446Z,15.87
2018-10-01T11:12:22.878Z,16.81
2018-10-01T11:14:51.519Z,17.25
2018-10-01T11:17:19.845Z,17.13
2018-10-01T11:19:48.263Z,16.53
2018-10-01T11:22:16.711Z,16.30
2018-10-01T11:24:45.134Z,15.47
2018-10-01T11:27:13.592Z,14.92
2018-10-01T11:29:42.072Z,15.77
2018-10-01T11:32:10.457Z,16.94
2018-10-01T11:34:38.989Z,19.22
2018-10-01T11:37:07.411Z,20.32
2018-10-01T11:39:35.953Z,20.93
2018-10-01T11:42:04.328Z,22.10
2018-10-01T11:44:32.824Z,21.29
2018-10-01T11:47:01.264Z,20.71
2018-10-01T11:49:29.688Z,18.80
2018-10-01T11:51:58.122Z,17.51
2018-10-01T11:54:26.631Z,16.00
2018-10-01T11:56:55.083Z,15.38
2018-10-01T11:59:23.876Z,15.09
2018-10-01T12:01:52.232Z,15.77
2018-10-01T12:04:20.685Z,16.20
2018-10-01T12:06:49.200Z,17.55
2018-10-01T12:09:17.737Z,18.68
2018-10-01T12:11:46.088Z,18.02
2018-10-01T12:14:14.672Z,17.30
2018-10-01T12:16:43.259Z,16.71
2018-10-01T12:19:11.912Z,15.54
2018-10-01T12:21:40.523Z,15.42
2018-10-01T12:24:08.936Z,14.92
2018-10-01T12:26:37.433Z,14.56
2018-10-01T12:29:06.047Z,14.17
2018-10-01T12:31:34.517Z,14.92
2018-10-01T12:34:03.060Z,14.55
2018-10-01T12:36:31.588Z,15.53
2018-10-01T12:39:00.105Z,15.80
2018-10-01T12:41:28.652Z,15.74
2018-10-01T12:43:57.866Z,15.56
2018-10-01T12:46:26.362Z,15.39
2018-10-01T12:48:54.868Z,15.07
2018-10-01T12:51:23.417Z,14.94
2018-10-01T12:53:51.833Z,14.66
2018-10-01T12:56:20.343Z,15.43
2018-10-01T12:58:49.047Z,14.00
2018-10-01T13:01:18.001Z,13.92
2018-10-01T13:03:47.298Z,13.94
2018-10-01T13:06:15.798Z,13.60
2018-10-01T13:08:44.307Z,13.23
2018-10-01T13:11:12.944Z,12.99
2018-10-01T13:13:41.480Z,12.27
2018-10-01T13:16:10.144Z,11.50
2018-10-01T13:18:38.699Z,11.51
2018-10-01T13:21:07.415Z,12.38
2018-10-01T13:23:35.992Z,12.56
2018-10-01T13:26:04.932Z,12.87
2018-10-01T13:28:33.963Z,12.05
2018-10-01T13:31:02.523Z,11.67
2018-10-01T13:33:30.982Z,10.96
2018-10-01T13:35:59.558Z,11.74
2018-10-01T13:38:27.935Z,11.63
2018-10-01T13:40:56.370Z,12.17
2018-10-01T13:43:24.820Z,12.19
2018-10-01T13:45:53.292Z,12.14
2018-10-01T13:48:21.904Z,12.89
2018-10-01T13:50:50.257Z,12.58
2018-10-01T13:53:18.740Z,12.25
2018-10-01T13:55:47.278Z,12.61
2018-10-01T13:58:15.806Z,12.87
2018-10-01T14:00:44.196Z,12.53
2018-10-01T14:03:12.628Z,12.23
2018-10-01T14:05:41.117Z,12.23
2018-10-01T14:08:09.564Z,12.28
2018-10-01T14:10:38.021Z,11.43
2018-10-01T14:13:06.821Z,11.80
2018-10-01T14:15:35.320Z,11.74
2018-10-01T14:18:03.823Z,11.01
2018-10-01T14:20:32.330Z,10.65
2018-10-01T14:23:00.863Z,10.98
2018-10-01T14:25:29.507Z,11.95
2018-10-01T14:27:57.949Z,11.99
2018-10-01T14:30:26.588Z,12.46
2018-10-01T14:32:55.049Z,12.39
2018-10-01T14:35:23.560Z,12.64
2018-10-01T14:37:52.041Z,12.50
2018-10-01T14:40:20.464Z,12.44
2018-10-01T14:42:48.989Z,12.66
2018-10-01T14:45:17.582Z,12.68
2018-10-01T14:47:46.025Z,12.43
2018-10-01T14:50:15.660Z,12.33
2018-10-01T14:52:44.116Z,12.58
2018-10-01T14:55:13.057Z,12.23
2018-10-01T14:57:41.536Z,12.25
2018-10-01T15:00:10.081Z,11.03
2018-10-01T15:02:38.457Z,11.43
2018-10-01T15:05:06.913Z,10.84
2018-10-01T15:07:35.595Z,11.03
2018-10-01T15:10:04.092Z,11.34
2018-10-01T15:12:32.718Z,11.10
2018-10-01T15:15:01.197Z,11.61
2018-10-01T15:17:29.932Z,12.02
2018-10-01T15:19:59.647Z,11.52
2018-10-01T15:22:29.364Z,11.98
2018-10-01T15:24:57.919Z,11.89
2018-10-01T15:27:26.351Z,11.69
2018-10-01T15:29:54.777Z,11.84
2018-10-01T15:32:23.267Z,11.18
2018-10-01T15:34:51.707Z,11.82
2018-10-01T15:37:20.322Z,11.63
2018-10-01T15:39:48.776Z,11.43
2018-10-01T15:42:17.247Z,11.13
2018-10-01T15:44:45.849Z,11.70
2018-10-01T15:47:14.272Z,11.81
2018-10-01T15:49:42.779Z,11.65
2018-10-01T15:52:11.264Z,11.84
2018-10-01T15:54:39.808Z,11.47
2018-10-01T15:57:08.292Z,11.10
2018-10-01T15:59:36.748Z,11.22
2018-10-01T16:02:05.184Z,11.12
2018-10-01T16:04:33.620Z,10.83
2018-10-01T16:07:02.049Z,10.25
2018-10-01T16:09:30.604Z,10.90
2018-10-01T16:11:59.138Z,10.47
2018-10-01T16:14:28.141Z,10.86
2018-10-01T16:16:57.089Z,11.33
2018-10-01T16:19:25.605Z,11.10
2018-10-01T16:21:54.200Z,11.14
2018-10-01T16:24:22.904Z,11.47
2018-10-01T16:26:51.424Z,10.28
2018-10-01T16:29:19.987Z,10.98
2018-10-01T16:31:48.475Z,11.05
2018-10-01T16:34:16.908Z,10.57
2018-10-01T16:36:45.355Z,11.16
2018-10-01T16:39:14.192Z,9.93
2018-10-01T16:41:42.608Z,9.91
2018-10-01T16:44:11.041Z,10.58
2018-10-01T16:46:39.531Z,10.27
2018-10-01T16:49:08.025Z,9.92
2018-10-01T16:51:36.525Z,10.09
2018-10-01T16:54:05.096Z,10.38
2018-10-01T16:56:33.654Z,10.52
2018-10-01T16:59:02.244Z,10.50
2018-10-01T17:01:30.804Z,10.34
2018-10-01T17:03:59.404Z,10.73
2018-10-01T17:06:30.939Z,9.87
2018-10-01T17:08:59.494Z,10.45
2018-10-01T17:11:28.333Z,10.43
2018-10-01T17:13:56.936Z,10.31
2018-10-01T17:16:25.477Z,9.98
2018-10-01T17:18:54.057Z,10.38
2018-10-01T17:21:22.569Z,10.05
2018-10-01T17:23:51.446Z,10.26
2018-10-01T17:26:20.108Z,10.74
2018-10-01T17:28:48.609Z,9.81
2018-10-01T17:31:17.136Z,10.77
2018-10-01T17:33:45.543Z,10.51
2018-10-01T17:36:20.181Z,10.17
2018-10-01T17:38:48.874Z,10.54
2018-10-01T17:41:17.288Z,9.80
2018-10-01T17:43:45.748Z,10.19
2018-10-01T17:46:14.185Z,10.49
2018-10-01T17:48:42.629Z,10.21
2018-10-01T17:51:11.049Z,10.83
2018-10-01T17:53:39.512Z,10.73
2018-10-01T17:56:07.937Z,10.54
2018-10-01T17:58:36.402Z,9.82
2018-10-01T18:01:04.882Z,10.07
2018-10-01T18:03:33.328Z,10.39
2018-10-01T18:06:01.816Z,10.08
2018-10-01T18:08:30.200Z,10.35
2018-10-01T18:10:58.640Z,10.26
2018-10-01T18:13:27.063Z,9.80
2018-10-01T18:15:55.467Z,9.92
2018-10-01T18:18:23.924Z,10.60
2018-10-01T18:20:52.480Z,10.46
2018-10-01T18:23:20.933Z,10.48
2018-10-01T18:25:49.253Z,10.20
2018-10-01T18:28:17.721Z,10.49
2018-10-01T18:30:46.183Z,10.58
2018-10-01T18:33:15.047Z,10.71
2018-10-01T18:35:43.460Z,10.76
2018-10-01T18:38:11.871Z,10.69
2018-10-01T18:40:40.276Z,10.46
2018-10-01T18:43:08.636Z,11.14
2018-10-01T18:45:37.183Z,10.83
2018-10-01T18:48:05.905Z,10.81
2018-10-01T18:50:34.513Z,9.55
2018-10-01T18:53:02.944Z,10.34
2018-10-01T18:55:31.456Z,10.65
2018-10-01T18:58:00.034Z,9.94
2018-10-01T19:00:28.644Z,10.46
2018-10-01T19:02:57.391Z,11.06
2018-10-01T19:05:25.928Z,10.70
2018-10-01T19:07:54.381Z,10.30
2018-10-01T19:10:23.258Z,10.55
2018-10-01T19:15:19.301Z,10.44
2018-10-01T19:17:48.289Z,9.98
2018-10-01T19:20:16.862Z,10.88
2018-10-01T19:22:45.337Z,10.59
2018-10-01T19:25:13.872Z,10.92
2018-10-01T19:27:42.504Z,11.00
2018-10-01T19:30:11.068Z,10.51
2018-10-01T19:32:39.934Z,10.66
2018-10-01T19:35:08.462Z,10.13
2018-10-01T19:37:36.920Z,10.36
2018-10-01T19:40:05.457Z,10.21
2018-10-01T19:42:34.047Z,10.14
2018-10-01T19:45:02.573Z,10.14
2018-10-01T19:47:30.930Z,10.07
2018-10-01T19:49:59.636Z,10.11
2018-10-01T19:52:28.174Z,10.40
2018-10-01T19:54:56.693Z,10.18
2018-10-01T19:57:25.218Z,9.82
2018-10-01T19:59:53.703Z,9.68
2018-10-01T20:02:22.122Z,10.67
2018-10-01T20:04:50.777Z,10.22
2018-10-01T20:07:19.231Z,10.61
2018-10-01T20:09:47.720Z,9.97
2018-10-01T20:12:16.386Z,10.04
2018-10-01T20:14:45.173Z,10.08
2018-10-01T20:17:13.731Z,10.14
2018-10-01T20:19:42.304Z,9.75
2018-10-01T20:22:12.922Z,10.04
2018-10-01T20:24:41.420Z,10.13
2018-10-01T20:27:09.948Z,10.62
2018-10-01T20:29:38.883Z,10.90
2018-10-01T20:32:07.249Z,10.79
2018-10-01T20:34:35.718Z,10.18
2018-10-01T20:37:04.343Z,10.03
2018-10-01T20:39:33.380Z,10.11
2018-10-01T20:42:01.959Z,9.29
2018-10-01T20:44:30.336Z,10.10
2018-10-01T20:46:58.950Z,9.79
2018-10-01T20:49:27.295Z,10.32
2018-10-01T20:51:55.720Z,10.36
2018-10-01T20:54:24.094Z,10.15
2018-10-01T20:56:52.484Z,10.40
2018-10-01T20:59:20.992Z,10.39
2018-10-01T21:01:49.464Z,10.64
2018-10-01T21:04:17.956Z,10.19
2018-10-01T21:06:46.341Z,10.49
2018-10-01T21:09:14.840Z,10.34
2018-10-01T21:11:43.254Z,9.95
2018-10-01T21:14:11.718Z,8.94
2018-10-01T21:16:40.156Z,9.60
2018-10-01T21:19:08.572Z,10.45
2018-10-01T21:21:37.004Z,9.46
2018-10-01T21:24:05.492Z,9.99
2018-10-01T21:26:33.928Z,9.90
2018-10-01T21:29:02.430Z,10.31
2018-10-01T21:31:30.760Z,10.64
2018-10-01T21:33:59.293Z,9.67
2018-10-01T21:36:27.661Z,9.82
2018-10-01T21:38:56.042Z,10.53
2018-10-01T21:41:24.513Z,10.39
2018-10-01T21:43:52.859Z,10.40
2018-10-01T21:46:21.287Z,10.29
2018-10-01T21:48:49.637Z,9.75
2018-10-01T21:51:17.986Z,10.02
2018-10-01T21:53:46.352Z,9.76
2018-10-01T21:56:14.770Z,9.80
2018-10-01T21:58:43.175Z,10.45
2018-10-01T22:01:16.933Z,10.43
2018-10-01T22:03:45.284Z,10.69
2018-10-01T22:06:13.648Z,10.85
2018-10-01T22:08:42.188Z,10.36
2018-10-01T22:11:16.831Z,10.42
2018-10-01T22:13:45.337Z,10.17
2018-10-01T22:16:13.752Z,9.94
2018-10-01T22:18:42.220Z,9.38
2018-10-01T22:21:10.680Z,9.61
2018-10-01T22:23:39.121Z,10.19
2018-10-01T22:26:07.524Z,9.44
2018-10-01T22:28:35.928Z,9.81
2018-10-01T22:31:04.339Z,9.80
2018-10-01T22:33:32.760Z,9.83
2018-10-01T22:36:01.103Z,10.00
2018-10-01T22:38:29.455Z,9.79
2018-10-01T22:40:57.782Z,9.65
2018-10-01T22:43:26.152Z,9.23
2018-10-01T22:45:54.516Z,9.39
2018-10-01T22:48:22.977Z,9.96
2018-10-01T22:50:51.280Z,9.71
2018-10-01T22:53:19.584Z,9.47
2018-10-01T22:55:47.893Z,9.21
2018-10-01T22:58:16.260Z,9.92
2018-10-01T23:00:44.679Z,10.42
2018-10-01T23:03:12.972Z,9.37
2018-10-01T23:05:41.348Z,9.81
2018-10-01T23:08:09.654Z,9.61
2018-10-01T23:10:38.095Z,8.94
2018-10-01T23:13:06.429Z,10.09
2018-10-01T23:15:34.929Z,9.86
2018-10-01T23:18:03.447Z,9.89
2018-10-01T23:20:31.796Z,9.68
2018-10-01T23:23:00.170Z,9.98
2018-10-01T23:25:28.543Z,10.31
2018-10-01T23:27:56.887Z,9.89
2018-10-01T23:30:25.308Z,9.34
2018-10-01T23:32:53.667Z,9.59
2018-10-01T23:35:22.167Z,10.01
2018-10-01T23:37:50.520Z,9.62
2018-10-01T23:40:18.908Z,9.94
2018-10-01T23:42:47.336Z,10.14
2018-10-01T23:45:15.848Z,9.82
2018-10-01T23:47:44.195Z,10.13
2018-10-01T23:50:12.548Z,10.07
2018-10-01T23:52:40.959Z,9.56
2018-10-01T23:55:09.332Z,9.75
2018-10-01T23:57:38.556Z,9.06
